Time;durP1;ratioP1;P1;durP2;ratioP2;P2;SDS_P1;SDS_P2;PMS_P1;PMS_P2;Temp;Humidity;BMP_temperature;BMP_pressure;BME280_temperature;BME280_humidity;BME280_pressure;Samples;Min_cycle;Max_cycle;Signal;HPM_P1;HPM_P2
2023/12/09 00:01:06;;;;;;;42.60;24.83;;;4.40;99.90;;;;;;5061206;28;20293;-72
2023/12/09 00:03:37;;;;;;;43.30;24.23;;;4.40;99.90;;;;;;5063098;28;20225;-71
2023/12/09 00:06:07;;;;;;;49.25;24.13;;;4.40;99.90;;;;;;5061895;28;20302;-72
2023/12/09 00:08:35;;;;;;;42.97;24.77;;;4.40;99.90;;;;;;5059604;28;20204;-71
2023/12/09 00:11:03;;;;;;;53.13;26.90;;;4.40;99.90;;;;;;5063073;28;20241;-72
2023/12/09 00:13:32;;;;;;;53.45;27.67;;;4.40;99.90;;;;;;5067197;28;20257;-71
2023/12/09 00:15:59;;;;;;;55.00;27.80;;;4.40;99.90;;;;;;5066453;28;20299;-72
2023/12/09 00:18:27;;;;;;;50.35;26.70;;;4.40;99.90;;;;;;5061326;28;20244;-72
2023/12/09 00:20:56;;;;;;;46.53;25.88;;;4.50;99.90;;;;;;5055252;28;20297;-72
2023/12/09 00:23:25;;;;;;;48.58;27.27;;;4.50;99.90;;;;;;5050772;28;20222;-72
2023/12/09 00:25:53;;;;;;;50.47;26.88;;;4.50;99.90;;;;;;5055726;28;20209;-72
2023/12/09 00:28:21;;;;;;;47.17;26.02;;;4.50;99.90;;;;;;5065848;28;20258;-71
2023/12/09 00:30:49;;;;;;;44.13;25.05;;;4.50;99.90;;;;;;5067012;28;20312;-72
2023/12/09 00:33:16;;;;;;;46.38;25.40;;;4.50;99.90;;;;;;5065008;28;20652;-72
2023/12/09 00:35:46;;;;;;;50.72;25.98;;;4.50;99.90;;;;;;5062505;28;20251;-74
2023/12/09 00:38:13;;;;;;;50.30;25.85;;;4.50;99.90;;;;;;5055350;28;20230;-72
2023/12/09 00:40:43;;;;;;;44.80;24.98;;;4.50;99.90;;;;;;5055144;28;20631;-72
2023/12/09 00:43:11;;;;;;;47.25;24.80;;;4.40;99.90;;;;;;5053237;28;20254;-73
2023/12/09 00:45:38;;;;;;;46.83;25.23;;;4.40;99.90;;;;;;5055662;28;20230;-71
2023/12/09 00:48:06;;;;;;;48.60;25.77;;;4.40;99.90;;;;;;5061417;28;20225;-71
2023/12/09 00:50:35;;;;;;;37.72;23.00;;;4.40;99.90;;;;;;5062056;28;20293;-72
2023/12/09 00:53:03;;;;;;;44.38;24.65;;;4.40;99.90;;;;;;5068493;28;20662;-73
2023/12/09 00:55:31;;;;;;;42.78;23.73;;;4.40;99.90;;;;;;5065874;28;20231;-71
2023/12/09 00:58:00;;;;;;;48.58;24.38;;;4.50;99.90;;;;;;5065966;28;20247;-72
2023/12/09 01:00:28;;;;;;;49.28;25.70;;;4.50;99.90;;;;;;5058894;28;20233;-72
2023/12/09 01:02:56;;;;;;;50.63;27.42;;;4.50;99.90;;;;;;5073829;28;20267;-72
2023/12/09 01:05:24;;;;;;;47.83;25.02;;;4.50;99.90;;;;;;5068831;28;20209;-71
2023/12/09 01:07:52;;;;;;;39.63;23.48;;;4.50;99.90;;;;;;5062213;28;20278;-72
2023/12/09 01:10:20;;;;;;;43.33;25.05;;;4.50;99.90;;;;;;5073734;28;20241;-72
2023/12/09 01:12:48;;;;;;;45.83;24.40;;;4.50;99.90;;;;;;5073508;28;20705;-72
2023/12/09 01:15:17;;;;;;;44.70;23.90;;;4.50;99.90;;;;;;5074243;28;20235;-72
2023/12/09 01:17:46;;;;;;;40.90;24.13;;;4.50;99.90;;;;;;5058801;28;20199;-71
2023/12/09 01:20:15;;;;;;;44.25;22.80;;;4.50;99.90;;;;;;5071956;28;20659;-71
2023/12/09 01:22:42;;;;;;;44.30;24.02;;;4.50;99.90;;;;;;5072963;28;20228;-71
2023/12/09 01:25:10;;;;;;;43.42;25.15;;;4.50;99.90;;;;;;5073703;28;20248;-71
2023/12/09 01:27:38;;;;;;;39.70;23.30;;;4.50;99.90;;;;;;5073450;28;20678;-72
2023/12/09 01:30:07;;;;;;;40.22;23.17;;;4.50;99.90;;;;;;5072762;28;20221;-72
2023/12/09 01:32:37;;;;;;;46.88;23.88;;;4.50;99.90;;;;;;5073083;28;20666;-72
2023/12/09 01:35:06;;;;;;;40.20;25.05;;;4.50;99.90;;;;;;5073429;28;20216;-72
2023/12/09 01:37:33;;;;;;;40.03;22.92;;;4.50;99.90;;;;;;5073055;28;20682;-72
2023/12/09 01:40:01;;;;;;;44.30;25.23;;;4.50;99.90;;;;;;5072756;28;20266;-73
2023/12/09 01:42:29;;;;;;;42.28;23.98;;;4.50;99.90;;;;;;5072859;28;20230;-71
2023/12/09 01:44:57;;;;;;;49.38;24.88;;;4.50;99.90;;;;;;5067566;28;20267;-72
2023/12/09 01:47:25;;;;;;;45.38;24.63;;;4.50;99.90;;;;;;5072883;28;20221;-72
2023/12/09 01:49:54;;;;;;;51.08;27.38;;;4.50;99.90;;;;;;5073012;28;20292;-72
2023/12/09 01:52:22;;;;;;;53.17;26.73;;;4.50;99.90;;;;;;5072065;28;20229;-72
2023/12/09 01:54:51;;;;;;;54.72;28.20;;;4.40;99.90;;;;;;5073242;28;20213;-72
2023/12/09 01:57:18;;;;;;;50.88;28.25;;;4.40;99.90;;;;;;5072255;28;20205;-72
2023/12/09 01:59:46;;;;;;;52.53;26.10;;;4.40;99.90;;;;;;5072929;28;20213;-73
2023/12/09 02:02:14;;;;;;;50.30;26.88;;;4.40;99.90;;;;;;5071783;28;20229;-72
2023/12/09 02:04:42;;;;;;;55.20;28.60;;;4.40;99.90;;;;;;5072623;28;20208;-71
2023/12/09 02:07:11;;;;;;;48.03;25.50;;;4.40;99.90;;;;;;5072136;28;20220;-71
2023/12/09 02:09:40;;;;;;;52.22;26.40;;;4.50;99.90;;;;;;5072523;28;20312;-72
2023/12/09 02:12:12;;;;;;;52.33;26.58;;;4.50;99.90;;;;;;5071160;28;20259;-72
2023/12/09 02:14:43;;;;;;;45.17;25.75;;;4.50;99.90;;;;;;5072296;28;20201;-72
2023/12/09 02:17:13;;;;;;;48.42;27.15;;;4.50;99.90;;;;;;5072361;28;20288;-73
2023/12/09 02:19:41;;;;;;;57.13;27.52;;;4.60;99.90;;;;;;5072256;28;20237;-73
2023/12/09 02:22:09;;;;;;;54.63;27.42;;;4.60;99.90;;;;;;5070839;28;20201;-71
2023/12/09 02:24:38;;;;;;;52.67;27.75;;;4.60;99.90;;;;;;5072000;28;20220;-72
2023/12/09 02:27:09;;;;;;;54.80;29.05;;;4.60;99.90;;;;;;5069554;28;20625;-71
2023/12/09 02:29:42;;;;;;;47.30;24.98;;;4.60;99.90;;;;;;5072040;28;20647;-72
2023/12/09 02:32:10;;;;;;;57.25;27.55;;;4.40;99.90;;;;;;5070594;28;20641;-72
2023/12/09 02:34:39;;;;;;;54.65;27.75;;;4.40;99.90;;;;;;5061123;28;20236;-72
2023/12/09 02:37:07;;;;;;;54.40;28.80;;;4.40;99.90;;;;;;5067214;28;20693;-72
2023/12/09 02:39:34;;;;;;;51.78;26.83;;;4.40;99.90;;;;;;5071222;28;20288;-72
2023/12/09 02:42:05;;;;;;;54.72;27.77;;;4.50;99.90;;;;;;5070915;28;20209;-72
2023/12/09 02:44:33;;;;;;;54.30;27.63;;;4.50;99.90;;;;;;5051613;28;20651;-73
2023/12/09 02:47:01;;;;;;;53.58;26.83;;;4.50;99.90;;;;;;5070118;28;20296;-71
2023/12/09 02:49:29;;;;;;;53.03;27.17;;;4.50;99.90;;;;;;5070795;28;20592;-71
2023/12/09 02:51:57;;;;;;;54.28;26.23;;;4.50;99.90;;;;;;5067065;28;20206;-71
2023/12/09 02:54:24;;;;;;;49.88;25.38;;;4.50;99.90;;;;;;5069242;28;20264;-72
2023/12/09 02:56:52;;;;;;;49.60;26.33;;;4.50;99.90;;;;;;5071815;28;20678;-71
2023/12/09 02:59:21;;;;;;;45.97;25.95;;;4.60;99.90;;;;;;5068924;28;20252;-72
2023/12/09 03:01:49;;;;;;;49.15;24.65;;;4.50;99.90;;;;;;5070362;28;20759;-71
2023/12/09 03:04:17;;;;;;;42.97;23.25;;;4.60;99.90;;;;;;5070406;28;20236;-72
2023/12/09 03:06:45;;;;;;;45.67;25.05;;;4.60;99.90;;;;;;5070204;28;20209;-71
2023/12/09 03:09:13;;;;;;;44.97;23.60;;;4.60;99.90;;;;;;5068720;28;20256;-72
2023/12/09 03:11:41;;;;;;;45.42;24.92;;;4.60;99.90;;;;;;5070410;28;20569;-71
2023/12/09 03:14:08;;;;;;;44.65;24.83;;;4.50;99.90;;;;;;5070153;28;20228;-72
2023/12/09 03:16:39;;;;;;;42.97;23.92;;;4.60;99.90;;;;;;5070066;28;20201;-72
2023/12/09 03:19:06;;;;;;;46.47;25.48;;;4.50;99.90;;;;;;5068876;28;20201;-74
2023/12/09 03:21:35;;;;;;;45.13;25.65;;;4.50;99.90;;;;;;5054184;28;20205;-72
2023/12/09 03:24:03;;;;;;;41.78;24.55;;;4.50;99.90;;;;;;5069679;28;20732;-72
2023/12/09 03:26:30;;;;;;;47.33;25.25;;;4.50;99.90;;;;;;5069543;28;20208;-72
2023/12/09 03:28:58;;;;;;;40.60;23.73;;;4.50;99.90;;;;;;5069489;28;20261;-73
2023/12/09 03:31:26;;;;;;;40.28;22.98;;;4.50;99.90;;;;;;5068867;28;20209;-72
2023/12/09 03:33:55;;;;;;;52.65;26.45;;;4.50;99.90;;;;;;5069662;28;20311;-71
2023/12/09 03:36:23;;;;;;;58.45;28.35;;;4.60;99.90;;;;;;5069443;28;20263;-72
2023/12/09 03:38:51;;;;;;;57.08;28.17;;;4.60;99.90;;;;;;5069506;28;20214;-71
2023/12/09 03:41:19;;;;;;;50.88;28.35;;;4.60;99.90;;;;;;5067741;28;20292;-71
2023/12/09 03:43:51;;;;;;;51.05;28.10;;;4.70;99.90;;;;;;5065078;28;20610;-72
2023/12/09 03:46:19;;;;;;;53.83;28.60;;;4.70;99.90;;;;;;5066896;28;20580;-73
2023/12/09 03:48:46;;;;;;;60.42;29.48;;;4.80;99.90;;;;;;5069186;28;20225;-71
2023/12/09 03:51:16;;;;;;;59.55;30.63;;;4.80;99.90;;;;;;5069169;28;20241;-73
2023/12/09 03:53:45;;;;;;;64.00;30.13;;;4.70;99.90;;;;;;5069166;28;20315;-72
2023/12/09 03:56:16;;;;;;;60.22;30.42;;;4.70;99.90;;;;;;5069146;28;20267;-72
2023/12/09 03:58:44;;;;;;;56.80;30.13;;;4.70;99.90;;;;;;5069135;28;20734;-71
2023/12/09 04:01:12;;;;;;;60.72;30.52;;;4.70;99.90;;;;;;5067407;28;20212;-71
2023/12/09 04:03:40;;;;;;;56.78;29.40;;;4.80;99.90;;;;;;5068866;28;20225;-72
2023/12/09 04:06:08;;;;;;;60.58;30.27;;;4.70;99.90;;;;;;5069042;28;20213;-72
2023/12/09 04:08:37;;;;;;;57.83;28.42;;;4.80;99.90;;;;;;5069043;28;20225;-72
2023/12/09 04:11:05;;;;;;;60.63;29.05;;;4.80;99.90;;;;;;5067819;28;20252;-74
2023/12/09 04:13:33;;;;;;;61.28;30.35;;;4.80;99.90;;;;;;5068319;28;20225;-73
2023/12/09 04:16:02;;;;;;;59.60;28.52;;;4.80;99.90;;;;;;5068955;28;20240;-71
2023/12/09 04:18:30;;;;;;;66.63;30.70;;;4.80;99.90;;;;;;5068476;28;20205;-72
2023/12/09 04:20:58;;;;;;;65.32;29.80;;;4.80;99.90;;;;;;5068501;28;20663;-72
2023/12/09 04:23:26;;;;;;;72.18;31.83;;;4.80;99.90;;;;;;5067292;28;20234;-72
2023/12/09 04:25:55;;;;;;;67.57;30.48;;;4.80;99.90;;;;;;5068561;28;20686;-72
2023/12/09 04:28:23;;;;;;;62.88;29.58;;;4.80;99.90;;;;;;5068533;28;20240;-71
2023/12/09 04:30:50;;;;;;;60.00;28.83;;;4.80;99.90;;;;;;5068367;28;20679;-71
2023/12/09 04:33:18;;;;;;;55.55;27.75;;;4.80;99.90;;;;;;5066171;28;20222;-72
2023/12/09 04:35:46;;;;;;;60.78;28.00;;;4.80;99.90;;;;;;5068621;28;20216;-72
2023/12/09 04:38:14;;;;;;;58.33;27.05;;;4.80;99.90;;;;;;5068328;28;20825;-72
2023/12/09 04:40:43;;;;;;;57.20;27.17;;;4.80;99.90;;;;;;5068647;28;20645;-72
2023/12/09 04:43:12;;;;;;;58.92;28.70;;;4.80;99.90;;;;;;5065953;28;20257;-72
2023/12/09 04:45:40;;;;;;;59.60;28.58;;;4.80;99.90;;;;;;5059545;28;20292;-73
2023/12/09 04:48:08;;;;;;;58.03;26.85;;;4.80;99.90;;;;;;5068333;28;20202;-72
2023/12/09 04:50:36;;;;;;;62.38;28.70;;;4.80;99.90;;;;;;5067969;28;20233;-73
2023/12/09 04:53:04;;;;;;;62.72;28.23;;;4.80;99.90;;;;;;5066731;28;20627;-71
2023/12/09 04:55:32;;;;;;;82.78;31.52;;;4.80;99.90;;;;;;5067723;28;20259;-72
2023/12/09 04:58:00;;;;;;;71.65;30.48;;;4.80;99.90;;;;;;5071804;28;20244;-71
2023/12/09 05:00:29;;;;;;;83.75;32.72;;;4.80;99.90;;;;;;5072030;28;20202;-71
2023/12/09 05:02:57;;;;;;;80.32;33.97;;;4.80;99.90;;;;;;5068823;28;20312;-72
2023/12/09 05:05:25;;;;;;;75.82;31.58;;;4.80;99.90;;;;;;5068750;28;20206;-72
2023/12/09 05:07:53;;;;;;;66.88;30.27;;;4.80;99.90;;;;;;5071585;28;20293;-72
2023/12/09 05:10:21;;;;;;;65.13;30.23;;;4.80;99.90;;;;;;5070253;28;20248;-72
2023/12/09 05:12:49;;;;;;;78.63;32.85;;;4.80;99.90;;;;;;5067279;28;20259;-72
2023/12/09 05:15:17;;;;;;;77.10;32.47;;;4.90;99.90;;;;;;5064820;28;20717;-72
2023/12/09 05:17:47;;;;;;;76.63;32.60;;;4.90;99.90;;;;;;5071457;28;20209;-72
2023/12/09 05:20:15;;;;;;;73.50;29.98;;;4.90;99.90;;;;;;5071321;28;20674;-72
2023/12/09 05:22:44;;;;;;;70.70;31.63;;;4.80;99.90;;;;;;5071170;28;20227;-72
2023/12/09 05:25:13;;;;;;;75.75;30.48;;;4.90;99.90;;;;;;5068900;28;20201;-71
2023/12/09 05:27:41;;;;;;;78.82;30.50;;;4.90;99.90;;;;;;5055351;28;20198;-73
2023/12/09 05:30:10;;;;;;;65.72;30.67;;;4.90;99.90;;;;;;5071051;28;20282;-72
2023/12/09 05:32:38;;;;;;;62.50;30.13;;;4.90;99.90;;;;;;5070912;28;20221;-71
2023/12/09 05:35:08;;;;;;;63.13;30.00;;;4.90;99.90;;;;;;5069656;28;20267;-71
2023/12/09 05:37:36;;;;;;;65.22;31.17;;;4.90;99.90;;;;;;5069978;28;20300;-72
2023/12/09 05:40:04;;;;;;;68.68;29.92;;;4.90;99.90;;;;;;5070938;28;20654;-72
2023/12/09 05:42:32;;;;;;;68.85;31.30;;;5.00;99.90;;;;;;5070395;28;20714;-71
2023/12/09 05:45:00;;;;;;;69.20;31.77;;;5.00;99.90;;;;;;5062646;28;20209;-72
2023/12/09 05:47:28;;;;;;;69.72;31.10;;;5.00;99.90;;;;;;5068898;28;20216;-72
2023/12/09 05:49:56;;;;;;;74.65;31.13;;;5.00;99.90;;;;;;5070489;28;20231;-73
2023/12/09 05:52:25;;;;;;;68.68;32.00;;;5.00;99.90;;;;;;5070520;28;20320;-72
2023/12/09 05:54:53;;;;;;;69.38;31.27;;;5.00;99.90;;;;;;5070515;28;20212;-73
2023/12/09 05:57:21;;;;;;;66.75;30.20;;;5.00;99.90;;;;;;5065155;28;20277;-72
2023/12/09 05:59:49;;;;;;;88.03;32.45;;;5.00;99.90;;;;;;5070616;28;20262;-72
2023/12/09 06:02:17;;;;;;;70.35;32.67;;;5.00;99.90;;;;;;5069862;28;20259;-72
2023/12/09 06:04:45;;;;;;;62.40;30.40;;;5.00;99.90;;;;;;5065724;28;20260;-72
2023/12/09 06:07:13;;;;;;;94.07;31.80;;;5.00;99.90;;;;;;5059651;28;20207;-72
2023/12/09 06:09:42;;;;;;;67.85;31.02;;;5.00;99.90;;;;;;5053619;28;20217;-72
2023/12/09 06:12:10;;;;;;;77.18;33.20;;;5.00;99.90;;;;;;5069891;28;20205;-73
2023/12/09 06:14:38;;;;;;;79.70;32.20;;;5.00;99.90;;;;;;5059431;28;20205;-73
2023/12/09 06:17:06;;;;;;;68.40;32.50;;;5.00;99.90;;;;;;5067575;28;20565;-73
2023/12/09 06:19:34;;;;;;;65.68;31.08;;;5.00;99.90;;;;;;5069002;28;20284;-72
2023/12/09 06:22:01;;;;;;;67.68;31.02;;;5.00;99.90;;;;;;5069781;28;20235;-72
2023/12/09 06:24:29;;;;;;;61.75;29.52;;;5.00;99.90;;;;;;5069633;28;20209;-72
2023/12/09 06:26:58;;;;;;;69.43;30.65;;;5.00;99.90;;;;;;5069273;28;20334;-73
2023/12/09 06:29:28;;;;;;;64.60;31.63;;;5.00;99.90;;;;;;5067276;28;20640;-72
2023/12/09 06:31:56;;;;;;;75.50;32.40;;;5.00;99.90;;;;;;5069232;28;20221;-72
2023/12/09 06:34:24;;;;;;;69.65;31.50;;;5.10;99.90;;;;;;5069331;28;20301;-73
2023/12/09 06:36:52;;;;;;;62.97;31.73;;;5.10;99.90;;;;;;5069292;28;20213;-72
2023/12/09 06:39:19;;;;;;;71.70;31.05;;;5.10;99.90;;;;;;5066057;28;20248;-72
2023/12/09 06:41:48;;;;;;;69.35;31.50;;;5.10;99.90;;;;;;5069332;28;20251;-72
2023/12/09 06:44:17;;;;;;;64.30;32.28;;;5.10;99.90;;;;;;5061222;28;20645;-72
2023/12/09 06:46:45;;;;;;;66.10;31.50;;;5.10;99.90;;;;;;5057443;28;20252;-73
2023/12/09 06:49:13;;;;;;;64.53;31.25;;;5.10;99.90;;;;;;5051981;28;20202;-73
2023/12/09 06:51:42;;;;;;;63.70;31.15;;;5.10;99.90;;;;;;5068660;28;20217;-72
2023/12/09 06:54:10;;;;;;;62.63;30.52;;;5.10;99.90;;;;;;5069124;28;20675;-73
2023/12/09 06:56:38;;;;;;;58.55;29.67;;;5.20;99.90;;;;;;5068398;28;20209;-72
2023/12/09 06:59:06;;;;;;;58.60;30.02;;;5.20;99.90;;;;;;5067370;28;20653;-72
2023/12/09 07:01:35;;;;;;;56.05;29.05;;;5.30;99.90;;;;;;5067494;28;20248;-75
2023/12/09 07:04:03;;;;;;;50.95;27.13;;;5.30;99.90;;;;;;5068758;28;20247;-75
2023/12/09 07:06:31;;;;;;;56.88;28.98;;;5.30;99.90;;;;;;5068399;28;20284;-75
2023/12/09 07:08:59;;;;;;;53.78;28.42;;;5.30;99.90;;;;;;5067920;28;20300;-76
2023/12/09 07:11:28;;;;;;;56.00;29.02;;;5.30;99.90;;;;;;5053802;28;20214;-75
2023/12/09 07:13:56;;;;;;;56.47;28.35;;;5.30;99.90;;;;;;5068228;28;20698;-75
2023/12/09 07:16:24;;;;;;;58.10;28.40;;;5.30;99.90;;;;;;5068416;28;20288;-75
2023/12/09 07:18:58;;;;;;;49.67;27.70;;;5.30;99.90;;;;;;5067863;28;20241;-75
2023/12/09 07:21:27;;;;;;;50.97;26.42;;;5.30;99.90;;;;;;5055273;28;20197;-75
2023/12/09 07:23:55;;;;;;;55.42;27.38;;;5.30;99.90;;;;;;5051312;28;20892;-72
2023/12/09 07:26:23;;;;;;;52.22;28.63;;;5.30;99.90;;;;;;5053032;28;20233;-73
2023/12/09 07:28:51;;;;;;;52.88;28.38;;;5.30;99.90;;;;;;5062909;28;20284;-73
2023/12/09 07:31:19;;;;;;;54.90;27.63;;;5.40;99.90;;;;;;5064570;28;20226;-72
2023/12/09 07:33:47;;;;;;;51.60;27.40;;;5.40;99.90;;;;;;5051184;28;20236;-72
2023/12/09 07:36:17;;;;;;;45.10;25.15;;;5.40;99.90;;;;;;5059757;28;20626;-72
2023/12/09 07:38:45;;;;;;;47.42;26.58;;;5.40;99.90;;;;;;5063542;28;20240;-72
2023/12/09 07:41:14;;;;;;;47.30;25.23;;;5.40;99.90;;;;;;5065420;28;20663;-72
2023/12/09 07:43:42;;;;;;;46.55;25.90;;;5.40;99.90;;;;;;5066802;28;20233;-72
2023/12/09 07:46:09;;;;;;;52.35;25.45;;;5.40;99.90;;;;;;5067474;28;20209;-72
2023/12/09 07:48:38;;;;;;;50.22;26.50;;;5.40;99.90;;;;;;5062202;28;20241;-72
2023/12/09 07:51:06;;;;;;;48.55;26.25;;;5.40;99.90;;;;;;5065687;28;20217;-72
2023/12/09 07:53:35;;;;;;;57.80;28.15;;;5.40;99.90;;;;;;5065528;28;20222;-72
2023/12/09 07:56:04;;;;;;;47.28;27.65;;;5.50;99.90;;;;;;5067489;28;20205;-72
2023/12/09 07:58:32;;;;;;;49.15;25.85;;;5.50;99.90;;;;;;5066699;28;20209;-72
2023/12/09 08:01:01;;;;;;;47.78;26.33;;;5.50;99.90;;;;;;5067119;28;20197;-72
2023/12/09 08:03:32;;;;;;;50.67;26.27;;;5.60;99.90;;;;;;5064442;28;20233;-72
2023/12/09 08:06:02;;;;;;;47.08;25.63;;;5.60;99.90;;;;;;5067148;28;20682;-72
2023/12/09 08:08:30;;;;;;;48.70;25.70;;;5.60;99.90;;;;;;5067080;28;20232;-73
2023/12/09 08:11:01;;;;;;;44.50;24.63;;;5.60;99.90;;;;;;5065481;28;20316;-72
2023/12/09 08:13:29;;;;;;;47.80;24.63;;;5.70;99.90;;;;;;5062786;28;20217;-72
2023/12/09 08:15:57;;;;;;;42.75;23.42;;;5.70;99.90;;;;;;5050925;28;20264;-72
2023/12/09 08:18:25;;;;;;;44.13;23.73;;;5.80;99.90;;;;;;5062221;28;20690;-72
2023/12/09 08:20:54;;;;;;;46.03;23.35;;;5.80;99.90;;;;;;5067352;28;20212;-72
2023/12/09 08:23:22;;;;;;;43.33;22.85;;;5.80;99.90;;;;;;5059841;28;20218;-72
2023/12/09 08:25:50;;;;;;;44.67;23.35;;;5.80;99.90;;;;;;5050976;28;20245;-73
2023/12/09 08:28:19;;;;;;;53.67;24.02;;;5.90;99.90;;;;;;5053917;28;20292;-72
2023/12/09 08:30:47;;;;;;;42.63;22.95;;;5.90;99.90;;;;;;5052789;28;20233;-72
2023/12/09 08:33:15;;;;;;;55.95;23.58;;;6.00;99.90;;;;;;5057303;28;20266;-72
2023/12/09 08:35:43;;;;;;;51.00;23.10;;;6.00;99.90;;;;;;5062746;28;20197;-72
2023/12/09 08:38:12;;;;;;;53.38;24.48;;;6.10;99.90;;;;;;5067117;28;20201;-72
2023/12/09 08:40:40;;;;;;;49.25;22.08;;;6.10;99.90;;;;;;5069827;28;20209;-72
2023/12/09 08:43:08;;;;;;;56.63;24.83;;;6.10;99.90;;;;;;5066697;28;20233;-73
2023/12/09 08:45:37;;;;;;;51.15;24.02;;;6.20;99.90;;;;;;5062913;28;20233;-72
2023/12/09 08:48:06;;;;;;;52.33;25.83;;;6.20;99.90;;;;;;5062105;28;20201;-72
2023/12/09 08:50:34;;;;;;;48.20;24.02;;;6.20;99.90;;;;;;5061364;28;20205;-72
2023/12/09 08:53:02;;;;;;;50.42;25.50;;;6.20;99.90;;;;;;5068890;28;20221;-72
2023/12/09 08:55:30;;;;;;;49.80;25.83;;;6.30;99.90;;;;;;5067159;28;20234;-72
2023/12/09 08:57:58;;;;;;;54.97;25.63;;;6.30;99.90;;;;;;5069395;28;20229;-72
2023/12/09 09:00:27;;;;;;;46.63;23.70;;;6.40;99.90;;;;;;5066675;28;20658;-72
2023/12/09 09:02:56;;;;;;;51.35;24.75;;;6.40;99.90;;;;;;5069734;28;20227;-72
2023/12/09 09:05:24;;;;;;;51.85;25.17;;;6.40;99.90;;;;;;5058573;28;20229;-72
2023/12/09 09:07:52;;;;;;;52.65;26.35;;;6.50;99.90;;;;;;5057605;28;20201;-72
2023/12/09 09:10:20;;;;;;;50.75;26.15;;;6.50;99.90;;;;;;5065988;28;20259;-72
2023/12/09 09:12:48;;;;;;;55.10;26.95;;;6.50;99.90;;;;;;5069530;28;20232;-72
2023/12/09 09:15:16;;;;;;;48.42;26.13;;;6.50;99.90;;;;;;5066878;28;20268;-72
2023/12/09 09:17:44;;;;;;;48.53;27.02;;;6.60;99.90;;;;;;5067783;28;20205;-72
2023/12/09 09:20:14;;;;;;;46.97;25.80;;;6.60;99.90;;;;;;5067681;28;20233;-72
2023/12/09 09:22:42;;;;;;;52.17;26.42;;;6.70;99.90;;;;;;5068588;28;20249;-72
2023/12/09 09:25:13;;;;;;;53.85;25.35;;;6.70;99.90;;;;;;5067300;28;20330;-72
2023/12/09 09:27:42;;;;;;;48.42;25.13;;;6.70;99.90;;;;;;5067810;28;20245;-72
2023/12/09 09:30:10;;;;;;;55.22;26.58;;;6.70;99.90;;;;;;5069568;28;20223;-72
2023/12/09 09:32:38;;;;;;;50.33;25.45;;;6.80;99.90;;;;;;5068800;28;20228;-72
2023/12/09 09:35:08;;;;;;;49.38;23.90;;;6.80;99.90;;;;;;5067575;28;20689;-72
2023/12/09 09:37:37;;;;;;;41.58;23.52;;;6.90;99.90;;;;;;5066423;28;20198;-72
2023/12/09 09:40:06;;;;;;;46.83;25.25;;;6.90;99.90;;;;;;5074068;28;20254;-72
2023/12/09 09:42:37;;;;;;;48.45;23.25;;;6.90;99.90;;;;;;5067725;28;20729;-72
2023/12/09 09:45:09;;;;;;;45.35;23.23;;;7.00;99.90;;;;;;5067797;28;20201;-72
2023/12/09 09:47:39;;;;;;;36.80;21.38;;;7.00;99.90;;;;;;5066017;28;20723;-72
2023/12/09 09:50:08;;;;;;;45.05;23.23;;;7.10;99.90;;;;;;5068993;28;20205;-72
2023/12/09 09:52:40;;;;;;;43.42;21.40;;;7.10;99.90;;;;;;5068357;28;20229;-72
2023/12/09 09:55:09;;;;;;;32.15;20.20;;;7.10;99.90;;;;;;5067119;28;20675;-72
2023/12/09 09:57:37;;;;;;;34.40;20.83;;;7.10;99.90;;;;;;5062682;28;20315;-72
2023/12/09 10:00:13;;;;;;;48.83;21.67;;;7.20;99.90;;;;;;5068793;28;20684;-72
2023/12/09 10:02:42;;;;;;;39.15;20.60;;;7.20;99.90;;;;;;5068077;28;20625;-72
2023/12/09 10:05:10;;;;;;;38.70;19.98;;;7.20;99.90;;;;;;5066537;28;20298;-72
2023/12/09 10:07:39;;;;;;;41.67;21.95;;;7.30;99.90;;;;;;5065718;28;20708;-72
2023/12/09 10:10:08;;;;;;;39.63;18.98;;;7.40;99.90;;;;;;5068305;28;20221;-72
2023/12/09 10:12:36;;;;;;;45.00;20.08;;;7.60;99.90;;;;;;5067383;28;20650;-72
2023/12/09 10:15:05;;;;;;;32.60;17.88;;;7.80;99.90;;;;;;5067127;28;20224;-72
2023/12/09 10:17:33;;;;;;;37.20;18.90;;;8.00;99.90;;;;;;5064818;28;20570;-72
2023/12/09 10:20:01;;;;;;;34.42;18.90;;;8.10;99.90;;;;;;5068155;28;20213;-72
2023/12/09 10:22:29;;;;;;;35.35;18.50;;;8.20;99.90;;;;;;5059219;28;20707;-72
2023/12/09 10:24:59;;;;;;;35.25;18.15;;;8.30;99.90;;;;;;5060436;28;20459;-72
2023/12/09 10:27:27;;;;;;;38.65;19.60;;;8.30;99.90;;;;;;5064511;28;20655;-72
2023/12/09 10:29:56;;;;;;;39.40;18.55;;;8.20;99.90;;;;;;5059608;28;20288;-72
2023/12/09 10:32:24;;;;;;;32.85;18.55;;;8.10;99.90;;;;;;5057678;28;20257;-72
2023/12/09 10:34:52;;;;;;;33.88;18.65;;;8.10;99.90;;;;;;5068557;28;20755;-72
2023/12/09 10:37:21;;;;;;;37.42;18.33;;;8.10;99.90;;;;;;5069137;28;20213;-72
2023/12/09 10:39:49;;;;;;;40.65;19.63;;;8.20;99.90;;;;;;5055461;28;20299;-72
2023/12/09 10:42:19;;;;;;;32.38;18.27;;;8.20;99.90;;;;;;5056992;28;20702;-72
2023/12/09 10:44:48;;;;;;;32.45;17.85;;;8.20;99.90;;;;;;5054196;28;20221;-72
2023/12/09 10:47:16;;;;;;;32.00;16.20;;;8.20;99.90;;;;;;5059429;28;20749;-72
2023/12/09 10:49:43;;;;;;;31.98;17.50;;;8.30;99.90;;;;;;5057486;28;20672;-72
2023/12/09 10:52:11;;;;;;;32.28;16.35;;;8.30;99.90;;;;;;5057940;28;20320;-73
2023/12/09 10:54:39;;;;;;;34.28;15.52;;;8.30;99.90;;;;;;5066045;28;20278;-72
2023/12/09 10:57:07;;;;;;;30.50;16.27;;;8.30;99.90;;;;;;5064005;28;20285;-72
2023/12/09 10:59:37;;;;;;;36.78;16.75;;;8.30;99.90;;;;;;5063509;28;20602;-72
2023/12/09 11:02:05;;;;;;;29.95;15.63;;;8.30;99.90;;;;;;5066639;28;20201;-72
2023/12/09 11:04:33;;;;;;;27.20;14.65;;;8.30;99.90;;;;;;5066229;28;20288;-72
2023/12/09 11:07:06;;;;;;;27.90;13.43;;;8.20;99.90;;;;;;5054288;28;20258;-72
2023/12/09 11:09:34;;;;;;;29.60;13.95;;;8.20;99.90;;;;;;5062970;28;20292;-72
2023/12/09 11:12:02;;;;;;;26.90;13.55;;;8.20;99.90;;;;;;5066244;28;20209;-72
2023/12/09 11:14:31;;;;;;;26.05;13.27;;;8.10;99.90;;;;;;5066439;28;20209;-72
2023/12/09 11:17:01;;;;;;;24.50;12.52;;;8.10;99.90;;;;;;5065683;28;20732;-72
2023/12/09 11:19:30;;;;;;;29.60;12.18;;;8.10;99.90;;;;;;5062640;28;20210;-72
2023/12/09 11:21:58;;;;;;;23.90;12.18;;;8.00;99.90;;;;;;5066245;28;20255;-72
2023/12/09 11:24:29;;;;;;;19.73;10.82;;;8.00;99.90;;;;;;5060387;28;20202;-72
2023/12/09 11:26:57;;;;;;;20.02;11.77;;;8.00;99.90;;;;;;5065385;28;20674;-72
2023/12/09 11:29:26;;;;;;;23.05;12.13;;;8.00;99.90;;;;;;5062494;28;20198;-72
2023/12/09 11:31:54;;;;;;;24.13;12.15;;;8.00;99.90;;;;;;5065042;28;20969;-72
2023/12/09 11:34:23;;;;;;;20.75;11.93;;;8.00;99.90;;;;;;5065387;28;20287;-72
2023/12/09 11:36:52;;;;;;;25.15;12.05;;;7.90;99.90;;;;;;5065986;28;20201;-72
2023/12/09 11:39:21;;;;;;;23.88;12.48;;;8.00;99.90;;;;;;5056884;28;20678;-72
2023/12/09 11:41:50;;;;;;;24.42;11.43;;;8.00;99.90;;;;;;5063785;28;20263;-72
2023/12/09 11:44:17;;;;;;;19.95;11.18;;;8.00;99.90;;;;;;5057713;28;20767;-72
2023/12/09 11:46:46;;;;;;;22.73;11.60;;;8.00;99.90;;;;;;5051490;28;20241;-72
2023/12/09 11:49:14;;;;;;;19.05;11.98;;;8.00;99.90;;;;;;5063038;28;20258;-72
2023/12/09 11:51:44;;;;;;;15.15;9.95;;;8.00;99.90;;;;;;5061832;28;20202;-72
2023/12/09 11:54:12;;;;;;;17.75;10.85;;;8.00;99.90;;;;;;5055204;28;20387;-73
2023/12/09 11:56:40;;;;;;;17.35;10.93;;;8.10;99.90;;;;;;5056528;28;20209;-72
2023/12/09 11:59:08;;;;;;;16.33;10.57;;;8.10;99.90;;;;;;5058290;28;20432;-71
2023/12/09 12:01:36;;;;;;;19.50;11.05;;;8.20;99.90;;;;;;5057282;28;20202;-72
2023/12/09 12:04:05;;;;;;;19.33;10.32;;;8.20;99.90;;;;;;5057368;28;20225;-72
2023/12/09 12:06:33;;;;;;;26.67;10.55;;;8.20;99.90;;;;;;5060823;28;20205;-71
2023/12/09 12:09:03;;;;;;;16.98;9.93;;;8.30;99.90;;;;;;5064009;28;20205;-72
2023/12/09 12:11:33;;;;;;;18.23;9.65;;;8.30;99.90;;;;;;5061148;28;20756;-71
2023/12/09 12:14:01;;;;;;;13.65;9.70;;;8.30;99.90;;;;;;5064222;28;20225;-72
2023/12/09 12:16:28;;;;;;;24.98;10.60;;;8.30;99.90;;;;;;5065591;28;20288;-72
2023/12/09 12:18:56;;;;;;;19.00;9.50;;;8.30;99.90;;;;;;5064565;28;20285;-72
2023/12/09 12:21:24;;;;;;;21.33;9.63;;;8.20;99.90;;;;;;5061014;28;20587;-72
2023/12/09 12:23:52;;;;;;;19.17;10.38;;;8.20;99.90;;;;;;5062066;28;20230;-71
2023/12/09 12:26:22;;;;;;;17.90;11.10;;;8.10;99.90;;;;;;5064380;28;20209;-71
2023/12/09 12:28:51;;;;;;;17.67;10.60;;;8.10;99.90;;;;;;5063985;28;20807;-72
2023/12/09 12:31:20;;;;;;;15.15;10.13;;;8.00;99.90;;;;;;5060542;28;20626;-71
2023/12/09 12:33:48;;;;;;;16.40;9.60;;;8.00;99.90;;;;;;5061848;28;20230;-72
2023/12/09 12:36:16;;;;;;;19.77;9.80;;;8.00;99.90;;;;;;5064060;28;20231;-71
2023/12/09 12:38:46;;;;;;;20.02;10.35;;;8.10;99.90;;;;;;5062795;28;20213;-72
2023/12/09 12:41:14;;;;;;;23.05;9.20;;;8.10;99.90;;;;;;5061524;28;20602;-71
2023/12/09 12:43:43;;;;;;;19.63;9.77;;;8.10;99.90;;;;;;5061117;28;20738;-71